East Poland, ME

1:23 PM EST on December 06, 2016 (GMT -0500)
Poland, ME | | Change Station

Elev 325 ft 44.05 °N, 70.37 °W | Updated 26 seconds ago

Clear
Clear
35.8 °F
Feels Like 36 °F
N
0.0
Wind Variable Wind from SSW

Today
High -- | Low -- °F
--% Chance of Precip.
Yesterday
High -- | Low -- °F
Precip. -- in
Pressure 30.13 in
Visibility 10.0 miles
Clouds Clear
Windchill 36 °F
Dew Point 25 °F
Humidity 64%
Rainfall 0.00 in
Snow Depth Not available.
7:01 AM 4:03 PM
Waxing Crescent, 44% visible
METAR KLEW 061756Z AUTO 34006KT 10SM CLR 02/M04 A3007 RMK AO2 SLP201 60004 T00221044 10022 21117 58010 FZRANO
Pressure 30.13 in
Visibility 10.0 miles
Clouds Clear
Windchill 36 °F
Dew Point 25 °F
Humidity 64%
Rainfall 0.00 in
Snow Depth Not available.
7:01 AM 4:03 PM
Waxing Crescent, 44% visible
METAR KLEW 061756Z AUTO 34006KT 10SM CLR 02/M04 A3007 RMK AO2 SLP201 60004 T00221044 10022 21117 58010 FZRANO

10-Day Weather Forecast

Almanac

Astronomy

Dec. 06, 2016 Rise Set
Actual Time
Civil Twilight
Nautical Twilight
Astronomical Twilight
Moon
Length of Visible Light
Length of Day
Tomorrow will be .
, % of the Moon is Illuminated

Today's Extremes

State Highs State Lows

Community

WunderPhotos

Upload Photos

1,955,999 photos uploaded!

WunderBlog® & News

Nearby

Air Quality

  Air Quality AQ Index Pollutant
Not available.

Snow Depth

Station Depth Elevation

Earthquake Activity

City Distance Mag. Time & Date
Minimum magnitude displayed is 2.5.

Coastal Water Temperatures

Place Temperature

Stations

Nearby Weather Stations

Station Location Temp. Windchill Dew Point Humidity Wind Precip. Elev Updated Type
                   

Watches & Warnings

There are currently no watches in effect.